»·PEaware :: DAL395 KSLC-KEGE

DAL395 :: KSLC-KEGE

FLIGHT INFORMATION

Flight Status: Arrived
Operator:
Delta Air Lines
More flights by this operator :: More flights under this callsign
Pilot: Max W. (2591)
Aircraft: BOEING 737-800
(B738)
More flights by this aircraft type
Origin: KSLC Salt Lake City Intl
United States
Destination: KEGE Eagle Co Regl
United States
More flights between these airports :: More routes between these airports
Route: +LEETZ6 EKR RLG
File this flight plan on PilotEdge
Remarks:
Altitude:
(Current/Filed)
27,000ft
Speed:
(Current/Filed)
450kts
Departed: 14-May-18 08:03 PM
Arrived: 14-May-18 08:55 PM
Distance/Time
Traveled:
242nm/0:52
Distance/Time
To Go:
Arrived

Flight Plot

Page will automatically refresh every two minutes.

Flight plan parsing failed; only flown route is shown


Map Options




Map Legend


Flown Route
Filed Route
Departure Airport
Arrival Airport
Navaid (VOR, NDB)
Fix

Horizontal Profiles

Position Reports

Time Latitude Longitude Heading Altitude Ground
Speed
14-May-18 19:55 40.789208 -111.984502 234 4234ft 0kts
14-May-18 19:56 40.789208 -111.984502 234 4235ft 0kts
14-May-18 19:57 40.789208 -111.984502 234 4235ft 0kts
14-May-18 19:58 40.789208 -111.984502 234 4235ft 0kts
14-May-18 19:59 40.789283 -111.984362 234 4235ft 2kts
14-May-18 20:00 40.789589 -111.983798 234 4234ft 0kts
14-May-18 20:01 40.789747 -111.984914 283 4234ft 10kts
14-May-18 20:02 40.790955 -111.994880 303 4235ft 22kts
14-May-18 20:03 40.802968 -111.996566 356 4235ft 55kts
14-May-18 20:04 40.806985 -111.999176 185 4235ft 13kts
14-May-18 20:05 40.790806 -111.997349 175 4263ft 151kts
14-May-18 20:06 40.753599 -112.020116 235 6573ft 188kts
14-May-18 20:07 40.768718 -112.095061 320 8186ft 266kts
14-May-18 20:08 40.826701 -112.158524 316 11443ft 275kts
14-May-18 20:09 40.886294 -112.225700 337 14295ft 290kts
14-May-18 20:10 40.959900 -112.185567 63 15711ft 343kts
14-May-18 20:11 40.953723 -112.060432 106 18226ft 357kts
14-May-18 20:12 40.922774 -111.932582 108 20627ft 372kts
14-May-18 20:13 40.890659 -111.800259 108 22810ft 385kts
14-May-18 20:14 40.858029 -111.663857 108 23169ft 388kts
14-May-18 20:15 40.824705 -111.527718 108 23178ft 389kts
14-May-18 20:16 40.791272 -111.391185 108 23732ft 400kts
14-May-18 20:17 40.757589 -111.242568 107 24408ft 441kts
14-May-18 20:18 40.721478 -111.084731 108 25817ft 456kts
14-May-18 20:19 40.684524 -110.922770 108 27129ft 466kts
14-May-18 20:20 40.646893 -110.757560 107 27224ft 474kts
14-May-18 20:21 40.608136 -110.590329 108 27208ft 476kts
14-May-18 20:22 40.569085 -110.424243 109 27194ft 480kts
14-May-18 20:23 40.530267 -110.256128 104 27173ft 477kts
14-May-18 20:24 40.498223 -110.085045 106 27161ft 484kts
14-May-18 20:25 40.465349 -109.911754 106 27156ft 490kts
14-May-18 20:26 40.431790 -109.738033 106 27122ft 497kts
14-May-18 20:27 40.398059 -109.560428 106 27115ft 500kts
14-May-18 20:28 40.364538 -109.388611 106 27125ft 485kts
14-May-18 20:29 40.330701 -109.216281 106 27117ft 488kts
14-May-18 20:30 40.296801 -109.045616 107 27118ft 484kts
14-May-18 20:31 40.262498 -108.873714 107 27111ft 486kts
14-May-18 20:32 40.227751 -108.701696 107 27113ft 491kts
14-May-18 20:33 40.192726 -108.529481 107 27119ft 490kts
14-May-18 20:34 40.157228 -108.356860 108 27133ft 496kts
14-May-18 20:35 40.121372 -108.181879 108 27151ft 498kts
14-May-18 20:36 40.085058 -108.008560 108 27164ft 499kts
14-May-18 20:37 40.065141 -107.829405 96 27167ft 497kts
14-May-18 20:38 40.056663 -107.647988 95 27176ft 502kts
14-May-18 20:39 40.048863 -107.467093 95 27188ft 492kts
14-May-18 20:40 40.042045 -107.293103 95 26552ft 451kts
14-May-18 20:41 40.035204 -107.134505 95 24027ft 430kts
14-May-18 20:42 40.028426 -106.982756 95 21606ft 409kts
14-May-18 20:43 40.021908 -106.837581 95 19164ft 391kts
14-May-18 20:44 40.014827 -106.699414 104 16797ft 372kts
14-May-18 20:45 39.942361 -106.629315 172 15107ft 336kts
14-May-18 20:46 39.857059 -106.610882 173 14978ft 276kts
14-May-18 20:47 39.787346 -106.606629 197 14668ft 247kts
14-May-18 20:48 39.727856 -106.630697 198 13842ft 197kts
14-May-18 20:49 39.686263 -106.671142 247 11835ft 198kts
14-May-18 20:50 39.671631 -106.738278 270 11002ft 187kts
14-May-18 20:51 39.672348 -106.802980 266 10082ft 177kts
14-May-18 20:52 39.669041 -106.867201 260 8680ft 177kts
14-May-18 20:53 39.665116 -106.932223 270 8331ft 188kts
14-May-18 20:54 39.639872 -106.946218 91 6984ft 190kts
14-May-18 20:55 39.643002 -106.903810 244 6523ft 8kts
14-May-18 20:56 39.642578 -106.907038 258 6523ft 7kts
14-May-18 20:57 39.641529 -106.912030 112 6523ft 10kts
14-May-18 20:58 39.641046 -106.911640 175 6523ft 0kts
14-May-18 20:59 39.641046 -106.911640 175 6523ft 0kts
14-May-18 21:00 39.641046 -106.911640 175 6523ft 0kts

Navigation Log

Ident Type
Flight plan parsing failed, navigation log unavailable